Time;durP1;ratioP1;P1;durP2;ratioP2;P2;SDS_P1;SDS_P2;PMS_P1;PMS_P2;Temp;Humidity;BMP_temperature;BMP_pressure;BME280_temperature;BME280_humidity;BME280_pressure;Samples;Min_cycle;Max_cycle;Signal;HPM_P1;HPM_P2
2021/03/03 00:02:23;;;;;;;3.85;3.17;;;9.60;99.90;;;;;;5053139;28;20201;-76
2021/03/03 00:04:49;;;;;;;7.53;3.22;;;9.60;99.90;;;;;;5053079;28;20174;-76
2021/03/03 00:07:15;;;;;;;3.15;2.88;;;9.50;99.90;;;;;;5053479;28;20272;-76
2021/03/03 00:09:41;;;;;;;2.05;1.83;;;9.40;99.90;;;;;;5053136;28;20174;-76
2021/03/03 00:12:07;;;;;;;3.20;2.63;;;9.30;99.90;;;;;;5053057;28;20586;-76
2021/03/03 00:14:33;;;;;;;4.13;2.75;;;9.30;99.90;;;;;;5052991;28;20161;-76
2021/03/03 00:16:59;;;;;;;8.80;4.25;;;9.30;99.90;;;;;;5052828;28;20293;-76
2021/03/03 00:19:24;;;;;;;1.83;1.42;;;9.40;99.90;;;;;;5053084;28;20258;-76
2021/03/03 00:21:50;;;;;;;4.50;3.05;;;9.30;99.90;;;;;;5053330;28;20175;-76
2021/03/03 00:24:15;;;;;;;3.13;2.65;;;9.30;99.90;;;;;;5053268;28;20205;-76
2021/03/03 00:26:41;;;;;;;3.90;3.33;;;9.20;99.90;;;;;;5053127;28;20233;-76
2021/03/03 00:29:06;;;;;;;3.55;2.50;;;9.10;99.90;;;;;;5052896;28;20177;-76
2021/03/03 00:31:32;;;;;;;4.35;3.47;;;9.10;99.90;;;;;;5053001;28;20163;-76
2021/03/03 00:33:57;;;;;;;4.78;3.40;;;9.10;99.90;;;;;;5053052;28;20647;-76
2021/03/03 00:36:23;;;;;;;3.28;3.08;;;9.30;99.90;;;;;;5052870;28;20210;-76
2021/03/03 00:38:49;;;;;;;2.58;2.38;;;9.10;99.90;;;;;;5053171;28;20257;-76
2021/03/03 00:41:14;;;;;;;2.90;2.25;;;9.00;99.90;;;;;;5052810;28;20167;-75
2021/03/03 00:43:40;;;;;;;13.50;4.63;;;8.90;99.90;;;;;;5052896;28;20515;-75
2021/03/03 00:46:05;;;;;;;5.80;3.95;;;8.90;99.90;;;;;;5052628;28;20241;-75
2021/03/03 00:48:31;;;;;;;5.15;3.80;;;8.90;99.90;;;;;;5052867;28;20163;-76
2021/03/03 00:50:57;;;;;;;3.92;2.60;;;8.90;99.90;;;;;;5052698;28;20582;-76
2021/03/03 00:53:22;;;;;;;7.40;2.80;;;8.90;99.90;;;;;;5052993;28;20163;-75
2021/03/03 00:55:52;;;;;;;10.13;5.15;;;9.10;99.90;;;;;;5054615;28;20600;-75
2021/03/03 00:58:18;;;;;;;2.45;2.25;;;9.20;99.90;;;;;;5056442;28;20223;-75
2021/03/03 01:00:44;;;;;;;4.57;3.40;;;9.20;99.90;;;;;;5056412;28;20174;-75
2021/03/03 01:03:10;;;;;;;6.78;2.60;;;9.10;99.90;;;;;;5056512;28;20171;-75
2021/03/03 01:05:39;;;;;;;1.17;1.05;;;9.20;99.90;;;;;;5056403;28;20225;-75
2021/03/03 01:08:05;;;;;;;5.65;1.90;;;9.00;99.90;;;;;;5056621;28;20172;-75
2021/03/03 01:10:30;;;;;;;2.78;2.55;;;8.90;99.90;;;;;;5056348;28;20174;-75
2021/03/03 01:12:56;;;;;;;4.47;3.33;;;9.00;99.90;;;;;;5056131;28;20250;-75
2021/03/03 01:15:21;;;;;;;2.85;2.53;;;9.10;99.90;;;;;;5056283;28;20202;-75
2021/03/03 01:17:47;;;;;;;2.40;2.30;;;9.00;99.90;;;;;;5056085;28;20198;-75
2021/03/03 01:20:13;;;;;;;2.97;2.22;;;9.10;99.90;;;;;;5056281;28;20604;-75
2021/03/03 01:22:38;;;;;;;13.02;4.10;;;9.10;99.90;;;;;;5056080;28;20501;-75
2021/03/03 01:25:04;;;;;;;3.65;3.00;;;9.10;99.90;;;;;;5056184;28;20251;-75
2021/03/03 01:27:30;;;;;;;2.05;1.95;;;9.10;99.90;;;;;;5056002;28;20617;-75
2021/03/03 01:29:56;;;;;;;6.22;4.32;;;9.10;99.90;;;;;;5055975;28;20642;-75
2021/03/03 01:32:21;;;;;;;2.20;2.03;;;9.20;99.90;;;;;;5055912;28;20596;-75
2021/03/03 01:34:47;;;;;;;5.70;3.28;;;9.20;99.90;;;;;;5055785;28;20167;-75
2021/03/03 01:37:12;;;;;;;10.55;3.85;;;9.20;99.90;;;;;;5055700;28;20341;-75
2021/03/03 01:39:38;;;;;;;2.65;2.45;;;9.30;99.90;;;;;;5055755;28;20167;-75
2021/03/03 01:42:04;;;;;;;3.55;2.20;;;9.30;99.90;;;;;;5055751;28;20202;-75
2021/03/03 01:44:29;;;;;;;2.63;2.45;;;9.40;99.90;;;;;;5055870;28;20159;-75
2021/03/03 01:46:55;;;;;;;3.40;3.10;;;9.40;99.90;;;;;;5055589;28;20183;-75
2021/03/03 01:49:20;;;;;;;3.65;3.35;;;9.30;99.90;;;;;;5055533;28;20164;-75
2021/03/03 01:51:46;;;;;;;9.32;3.05;;;9.40;99.90;;;;;;5055601;28;20167;-75
2021/03/03 01:54:12;;;;;;;22.88;3.97;;;9.40;99.90;;;;;;5037775;28;20163;-75
2021/03/03 01:56:37;;;;;;;10.07;4.13;;;9.40;99.90;;;;;;5055144;28;20206;-75
2021/03/03 01:59:03;;;;;;;1.92;1.83;;;9.40;99.90;;;;;;5055513;28;20171;-75
2021/03/03 02:01:29;;;;;;;14.57;6.88;;;9.40;99.90;;;;;;5055361;28;20657;-75
2021/03/03 02:03:54;;;;;;;10.43;2.78;;;9.30;99.90;;;;;;5037789;28;20178;-75
2021/03/03 02:06:32;;;;;;;4.38;3.90;;;9.20;99.90;;;;;;5054274;28;20191;-75
2021/03/03 02:09:23;;;;;;;3.20;2.80;;;9.40;99.90;;;;;;5055271;28;20202;-75
2021/03/03 02:12:04;;;;;;;3.80;3.50;;;9.20;99.90;;;;;;5055302;28;20237;-75
2021/03/03 02:14:32;;;;;;;1.67;1.58;;;9.20;99.90;;;;;;5055440;28;20163;-75
2021/03/03 02:17:00;;;;;;;3.85;3.42;;;9.20;99.90;;;;;;5054934;28;20238;-75
2021/03/03 02:19:30;;;;;;;2.75;2.50;;;9.30;99.90;;;;;;5055088;28;20554;-76
2021/03/03 02:22:02;;;;;;;13.23;4.63;;;9.20;99.90;;;;;;5054992;28;20171;-75
2021/03/03 02:24:36;;;;;;;9.32;2.90;;;9.20;99.90;;;;;;5054872;28;20163;-76
2021/03/03 02:27:02;;;;;;;5.43;2.30;;;9.10;99.90;;;;;;5054806;28;20213;-75
2021/03/03 02:29:30;;;;;;;7.82;3.70;;;9.20;99.90;;;;;;5054836;28;20618;-75
2021/03/03 02:31:57;;;;;;;4.72;3.10;;;9.30;99.90;;;;;;5054685;28;20266;-75
2021/03/03 02:34:27;;;;;;;3.65;3.22;;;9.20;99.90;;;;;;5054761;28;20152;-75
2021/03/03 02:36:53;;;;;;;3.80;3.50;;;9.10;99.90;;;;;;5054559;28;20242;-75
2021/03/03 02:39:22;;;;;;;2.30;2.10;;;9.10;99.90;;;;;;5054682;28;20171;-75
2021/03/03 02:41:49;;;;;;;12.02;4.63;;;9.10;99.90;;;;;;5054589;28;20638;-75
2021/03/03 02:44:15;;;;;;;3.25;2.45;;;9.10;99.90;;;;;;5054807;28;20159;-75
2021/03/03 02:46:44;;;;;;;7.05;2.88;;;9.20;99.90;;;;;;5054559;28;20588;-76
2021/03/03 02:49:11;;;;;;;3.58;3.20;;;9.20;99.90;;;;;;5054449;28;20206;-76
2021/03/03 02:51:37;;;;;;;2.88;2.38;;;9.30;99.90;;;;;;5054609;28;20167;-76
2021/03/03 02:54:03;;;;;;;5.25;1.75;;;9.40;99.90;;;;;;5054721;28;20221;-76
2021/03/03 02:56:29;;;;;;;6.72;4.97;;;9.40;99.90;;;;;;5054030;28;20550;-76
2021/03/03 02:58:57;;;;;;;3.05;2.75;;;9.20;99.90;;;;;;5054386;28;20179;-76
2021/03/03 03:01:26;;;;;;;2.92;2.20;;;9.10;99.90;;;;;;5054273;28;20176;-76
2021/03/03 03:03:58;;;;;;;4.18;2.35;;;9.10;99.90;;;;;;5054295;28;20293;-76
2021/03/03 03:06:35;;;;;;;7.30;3.53;;;9.10;99.90;;;;;;5054053;28;20219;-76
2021/03/03 03:09:11;;;;;;;15.50;3.95;;;9.10;99.90;;;;;;5054086;28;20193;-76
2021/03/03 03:11:43;;;;;;;2.05;1.95;;;9.10;99.90;;;;;;5054050;28;20174;-76
2021/03/03 03:14:13;;;;;;;3.08;2.88;;;9.10;99.90;;;;;;5053935;28;20166;-76
2021/03/03 03:16:40;;;;;;;4.60;4.00;;;9.00;99.90;;;;;;5054110;28;20234;-76
2021/03/03 03:19:09;;;;;;;6.85;1.95;;;9.00;99.90;;;;;;5053460;28;20173;-75
2021/03/03 03:21:43;;;;;;;2.33;2.13;;;9.00;99.90;;;;;;5054046;28;20592;-76
2021/03/03 03:24:10;;;;;;;15.07;3.67;;;8.90;99.90;;;;;;5053835;28;20150;-75
2021/03/03 03:26:37;;;;;;;3.17;3.00;;;8.90;99.90;;;;;;5053656;28;20187;-76
2021/03/03 03:29:06;;;;;;;9.88;2.33;;;8.90;99.90;;;;;;5053685;28;20498;-76
2021/03/03 03:31:32;;;;;;;2.35;1.48;;;8.90;99.90;;;;;;5053695;28;20173;-76
2021/03/03 03:33:58;;;;;;;7.13;2.50;;;8.80;99.90;;;;;;5054162;28;20159;-76
2021/03/03 03:36:25;;;;;;;4.55;2.65;;;8.80;99.90;;;;;;5053556;28;20290;-75
2021/03/03 03:38:50;;;;;;;18.25;6.10;;;8.90;99.90;;;;;;5053656;28;20255;-76
2021/03/03 03:41:17;;;;;;;3.15;2.53;;;8.90;99.90;;;;;;5035558;28;20266;-75
2021/03/03 03:43:44;;;;;;;4.95;2.17;;;8.90;99.90;;;;;;5053562;28;20159;-76
2021/03/03 03:46:10;;;;;;;3.67;2.35;;;9.00;99.90;;;;;;5053428;28;20729;-76
2021/03/03 03:48:36;;;;;;;1.55;1.52;;;9.20;99.90;;;;;;5053364;28;20160;-76
2021/03/03 03:51:06;;;;;;;6.45;3.72;;;9.30;99.90;;;;;;5035469;28;20164;-76
2021/03/03 03:53:32;;;;;;;3.35;2.80;;;9.50;99.90;;;;;;5053296;28;20167;-75
2021/03/03 03:55:58;;;;;;;9.10;3.65;;;9.50;99.90;;;;;;5053315;28;20225;-76
2021/03/03 03:58:24;;;;;;;11.38;3.03;;;9.50;99.90;;;;;;5053534;28;20685;-76
2021/03/03 04:00:50;;;;;;;13.65;3.10;;;9.50;99.90;;;;;;5053155;28;20622;-76
2021/03/03 04:03:15;;;;;;;14.38;3.20;;;9.50;99.90;;;;;;5053150;28;20171;-76
2021/03/03 04:05:41;;;;;;;1.70;1.58;;;9.60;99.90;;;;;;5053101;28;20171;-76
2021/03/03 04:08:07;;;;;;;2.65;2.45;;;9.60;99.90;;;;;;5053314;28;20175;-76
2021/03/03 04:10:32;;;;;;;4.72;2.90;;;9.50;99.90;;;;;;5053175;28;20170;-76
2021/03/03 04:12:58;;;;;;;4.43;4.03;;;9.40;99.90;;;;;;5052996;28;20163;-76
2021/03/03 04:15:24;;;;;;;6.85;2.70;;;9.20;99.90;;;;;;5053204;28;20200;-76
2021/03/03 04:17:50;;;;;;;3.17;2.75;;;9.20;99.90;;;;;;5053211;28;20199;-76
2021/03/03 04:20:17;;;;;;;4.38;4.07;;;9.40;99.90;;;;;;5053083;28;20151;-76
2021/03/03 04:22:43;;;;;;;12.18;2.97;;;9.60;99.90;;;;;;5053120;28;20167;-76
2021/03/03 04:25:12;;;;;;;1.58;1.48;;;9.70;99.90;;;;;;5053014;28;20213;-76
2021/03/03 04:27:38;;;;;;;3.10;2.80;;;9.70;99.90;;;;;;5052831;28;20198;-76
2021/03/03 04:30:05;;;;;;;19.02;2.97;;;9.80;99.90;;;;;;5053824;28;20205;-75
2021/03/03 04:32:31;;;;;;;20.63;5.18;;;9.80;99.90;;;;;;5056981;28;20228;-75
2021/03/03 04:34:57;;;;;;;2.60;2.50;;;10.00;99.90;;;;;;5056897;28;20163;-75
2021/03/03 04:37:22;;;;;;;4.32;2.92;;;10.20;99.90;;;;;;5056884;28;20298;-75
2021/03/03 04:39:48;;;;;;;7.25;3.63;;;10.20;99.90;;;;;;5057414;28;20250;-75
2021/03/03 04:42:13;;;;;;;1.67;1.58;;;10.40;99.90;;;;;;5056730;28;20175;-75
2021/03/03 04:44:39;;;;;;;2.58;2.13;;;10.20;99.90;;;;;;5056840;28;20178;-74
2021/03/03 04:47:04;;;;;;;8.77;3.60;;;10.20;99.90;;;;;;5056939;28;20282;-78
2021/03/03 04:49:30;;;;;;;6.75;4.20;;;10.30;99.90;;;;;;5056602;28;20175;-75
2021/03/03 04:51:56;;;;;;;2.67;2.33;;;10.40;99.90;;;;;;5056663;28;20191;-75
2021/03/03 04:54:21;;;;;;;20.33;3.72;;;10.40;99.90;;;;;;5056640;28;20159;-75
2021/03/03 04:56:47;;;;;;;4.53;3.20;;;10.40;99.90;;;;;;5056574;28;20223;-75
2021/03/03 04:59:12;;;;;;;6.20;3.10;;;10.50;99.90;;;;;;5056536;28;20182;-76
2021/03/03 05:01:38;;;;;;;9.05;3.95;;;10.50;99.90;;;;;;5056328;28;20260;-76
2021/03/03 05:04:05;;;;;;;3.83;2.97;;;10.50;99.90;;;;;;5056482;28;20159;-76
2021/03/03 05:06:30;;;;;;;2.92;1.38;;;10.40;99.90;;;;;;5056243;28;20184;-75
2021/03/03 05:08:56;;;;;;;2.33;2.22;;;10.40;99.90;;;;;;5056141;28;20177;-76
2021/03/03 05:11:22;;;;;;;4.80;3.95;;;10.50;99.90;;;;;;5056520;28;20246;-76
2021/03/03 05:13:48;;;;;;;6.43;2.70;;;10.40;99.90;;;;;;5056228;28;20166;-76
2021/03/03 05:16:14;;;;;;;25.00;5.28;;;10.50;99.90;;;;;;5055938;28;20215;-76
2021/03/03 05:18:40;;;;;;;4.95;2.97;;;10.50;99.90;;;;;;5056186;28;20690;-76
2021/03/03 05:21:05;;;;;;;9.55;4.18;;;10.60;99.90;;;;;;5056041;28;20526;-76
2021/03/03 05:23:32;;;;;;;6.28;3.78;;;10.60;99.90;;;;;;5055789;28;20206;-76
2021/03/03 05:25:58;;;;;;;5.88;4.65;;;10.60;99.90;;;;;;5055718;28;20183;-76
2021/03/03 05:28:24;;;;;;;9.75;3.35;;;10.50;99.90;;;;;;5056015;28;20232;-76
2021/03/03 05:30:50;;;;;;;2.95;2.75;;;10.50;99.90;;;;;;5055919;28;20167;-76
2021/03/03 05:33:43;;;;;;;3.45;3.15;;;10.50;99.90;;;;;;5055730;28;20167;-76
2021/03/03 05:36:09;;;;;;;6.88;2.83;;;10.40;99.90;;;;;;5053188;28;20294;-76
2021/03/03 05:38:37;;;;;;;2.22;2.03;;;10.30;99.90;;;;;;5055997;28;20700;-76
2021/03/03 05:41:05;;;;;;;5.80;4.63;;;10.30;99.90;;;;;;5055628;28;20508;-77
2021/03/03 05:43:32;;;;;;;6.10;2.88;;;10.30;99.90;;;;;;5055713;28;20156;-77
2021/03/03 05:45:59;;;;;;;5.05;3.67;;;10.30;99.90;;;;;;5055763;28;20195;-77
2021/03/03 05:48:31;;;;;;;4.75;3.30;;;10.20;99.90;;;;;;5055756;28;20178;-76
2021/03/03 05:51:02;;;;;;;5.05;3.78;;;10.20;99.90;;;;;;5055978;28;20626;-77
2021/03/03 05:53:29;;;;;;;6.07;3.28;;;10.20;99.90;;;;;;5055737;28;20162;-77
2021/03/03 05:55:56;;;;;;;4.85;3.50;;;10.10;99.90;;;;;;5055567;28;20230;-77
2021/03/03 05:58:23;;;;;;;20.85;4.50;;;10.10;99.90;;;;;;5055490;28;20298;-77
2021/03/03 06:00:50;;;;;;;25.23;4.20;;;10.00;99.90;;;;;;5055543;28;20155;-74
2021/03/03 06:03:17;;;;;;;2.80;2.60;;;10.00;99.90;;;;;;5055177;28;20267;-76
2021/03/03 06:05:46;;;;;;;23.00;3.75;;;10.00;99.90;;;;;;5055132;28;20159;-76
2021/03/03 06:08:17;;;;;;;3.20;2.33;;;9.90;99.90;;;;;;5055491;28;20167;-76
2021/03/03 06:10:42;;;;;;;2.42;2.33;;;9.80;99.90;;;;;;5055397;28;20277;-76
2021/03/03 06:13:08;;;;;;;12.20;2.78;;;9.80;99.90;;;;;;5055002;28;20613;-76
2021/03/03 06:15:34;;;;;;;19.85;3.88;;;9.70;99.90;;;;;;5037209;28;20221;-76
2021/03/03 06:18:00;;;;;;;2.65;2.45;;;9.60;99.90;;;;;;5054689;28;20191;-76
2021/03/03 06:20:26;;;;;;;29.38;3.78;;;9.60;99.90;;;;;;5054914;28;20156;-76
2021/03/03 06:22:52;;;;;;;3.38;3.13;;;9.70;99.90;;;;;;5054674;28;20534;-75
2021/03/03 06:25:22;;;;;;;3.53;3.08;;;9.80;99.90;;;;;;5054783;28;20623;-75
2021/03/03 06:27:48;;;;;;;9.57;4.95;;;9.70;99.90;;;;;;5054679;28;20215;-75
2021/03/03 06:30:16;;;;;;;2.88;2.67;;;9.80;99.90;;;;;;5054688;28;20167;-75
2021/03/03 06:32:58;;;;;;;5.65;3.58;;;9.80;99.90;;;;;;5054664;28;20163;-75
2021/03/03 06:35:42;;;;;;;2.22;2.03;;;9.80;99.90;;;;;;5054751;28;20204;-76
2021/03/03 06:38:13;;;;;;;11.88;4.65;;;9.60;99.90;;;;;;5054299;28;20258;-75
2021/03/03 06:40:50;;;;;;;4.78;3.80;;;9.60;99.90;;;;;;5054181;28;20179;-75
2021/03/03 06:43:33;;;;;;;2.95;2.42;;;9.70;99.90;;;;;;5054123;28;20190;-75
2021/03/03 06:46:18;;;;;;;5.88;3.35;;;9.80;99.90;;;;;;5054426;28;20531;-75
2021/03/03 06:48:45;;;;;;;5.13;3.63;;;9.80;99.90;;;;;;5053817;28;20215;-77
2021/03/03 06:51:30;;;;;;;15.88;4.00;;;9.70;99.90;;;;;;5053991;28;20154;-77
2021/03/03 06:54:01;;;;;;;4.65;4.18;;;9.60;99.90;;;;;;5053290;28;20155;-77
2021/03/03 06:56:37;;;;;;;3.63;2.78;;;9.40;99.90;;;;;;5053509;28;20698;-76
2021/03/03 06:59:22;;;;;;;4.22;3.85;;;9.50;99.90;;;;;;5054098;28;20171;-77
2021/03/03 07:01:58;;;;;;;3.50;3.20;;;9.60;99.90;;;;;;5054153;28;20182;-76
2021/03/03 07:04:32;;;;;;;4.18;2.95;;;9.70;99.90;;;;;;5054089;28;20226;-77
2021/03/03 07:07:15;;;;;;;6.88;3.17;;;9.70;99.90;;;;;;5053454;28;20187;-77
2021/03/03 07:09:40;;;;;;;5.75;3.53;;;9.70;99.90;;;;;;5053823;28;20179;-77
2021/03/03 07:12:11;;;;;;;11.43;4.15;;;9.70;99.90;;;;;;5053830;28;20168;-77
2021/03/03 07:14:41;;;;;;;2.40;2.13;;;9.80;99.90;;;;;;5053603;28;20178;-78
2021/03/03 07:17:13;;;;;;;5.63;5.00;;;9.90;99.90;;;;;;5053858;28;20207;-77
2021/03/03 07:19:46;;;;;;;8.30;4.57;;;10.00;99.90;;;;;;5053639;28;20214;-77
2021/03/03 07:22:30;;;;;;;4.82;2.63;;;10.10;99.90;;;;;;5053692;28;20167;-76
2021/03/03 07:24:58;;;;;;;9.95;3.97;;;10.20;99.90;;;;;;5053388;28;20167;-76
2021/03/03 07:27:24;;;;;;;9.13;2.58;;;10.40;99.90;;;;;;5053178;28;20194;-77
2021/03/03 07:29:53;;;;;;;12.85;5.63;;;10.50;99.90;;;;;;5053108;28;20183;-77
2021/03/03 07:32:19;;;;;;;6.10;4.40;;;10.50;99.90;;;;;;5052815;28;20164;-76
2021/03/03 07:34:47;;;;;;;7.40;5.22;;;10.50;99.90;;;;;;5053386;28;20534;-76
2021/03/03 07:37:15;;;;;;;2.85;2.65;;;10.60;99.90;;;;;;5053374;28;20202;-76
2021/03/03 07:39:44;;;;;;;2.75;2.55;;;10.70;99.90;;;;;;5053478;28;20170;-76
2021/03/03 07:42:17;;;;;;;5.30;4.55;;;10.70;99.90;;;;;;5053132;28;20174;-76
2021/03/03 07:44:45;;;;;;;4.13;3.83;;;10.70;99.90;;;;;;5053500;28;20164;-78
2021/03/03 07:47:12;;;;;;;3.92;3.63;;;10.80;99.90;;;;;;5053345;28;20197;-77
2021/03/03 07:49:40;;;;;;;4.97;4.13;;;10.80;99.90;;;;;;5053170;28;20242;-77
2021/03/03 07:52:06;;;;;;;2.53;2.33;;;10.80;99.90;;;;;;5052885;28;20201;-80
2021/03/03 07:54:32;;;;;;;9.30;3.55;;;10.90;99.90;;;;;;5055073;28;20182;-77
2021/03/03 07:56:59;;;;;;;8.70;3.42;;;10.90;99.90;;;;;;5050879;28;20221;-77
2021/03/03 07:59:25;;;;;;;4.75;3.35;;;11.00;99.90;;;;;;5051895;28;20181;-78
2021/03/03 08:01:51;;;;;;;8.13;4.32;;;11.00;99.90;;;;;;5050031;28;20206;-77
2021/03/03 08:04:46;;;;;;;9.15;4.95;;;11.10;99.90;;;;;;5035257;28;20280;-77
2021/03/03 08:07:32;;;;;;;7.28;4.57;;;11.40;99.90;;;;;;5028054;28;20227;-77
2021/03/03 08:10:19;;;;;;;13.13;5.18;;;11.50;99.90;;;;;;5032314;28;20206;-77
2021/03/03 08:13:08;;;;;;;4.63;4.20;;;11.60;99.90;;;;;;5032230;28;20247;-77
2021/03/03 08:15:46;;;;;;;3.40;3.17;;;11.80;99.90;;;;;;5032156;28;20260;-79
2021/03/03 08:18:29;;;;;;;4.40;4.05;;;11.90;99.90;;;;;;5032402;28;20246;-76
2021/03/03 08:20:57;;;;;;;4.35;4.03;;;12.10;99.90;;;;;;5032960;28;20172;-86
2021/03/03 08:23:35;;;;;;;4.63;3.70;;;12.20;99.90;;;;;;5044406;28;20221;-88
2021/03/03 08:26:16;;;;;;;4.05;2.78;;;12.30;99.90;;;;;;5034533;28;20199;-80
2021/03/03 08:28:43;;;;;;;15.13;3.85;;;12.40;99.90;;;;;;5052321;28;20689;-79
2021/03/03 08:31:11;;;;;;;7.97;6.45;;;12.50;99.90;;;;;;5052154;28;20247;-80
2021/03/03 08:33:41;;;;;;;15.13;4.38;;;12.50;99.90;;;;;;5034047;28;20598;-76
2021/03/03 08:36:13;;;;;;;5.07;4.68;;;12.60;99.90;;;;;;5052064;28;20209;-76
2021/03/03 08:38:38;;;;;;;8.23;3.80;;;12.70;99.90;;;;;;5052055;28;20175;-77
2021/03/03 08:41:16;;;;;;;20.83;5.82;;;12.80;99.90;;;;;;5052895;28;20166;-77
2021/03/03 08:43:44;;;;;;;4.80;4.15;;;12.90;99.90;;;;;;5052907;28;20246;-82
2021/03/03 08:46:19;;;;;;;7.47;3.40;;;13.00;99.90;;;;;;5033751;28;20187;-75
2021/03/03 08:48:53;;;;;;;14.30;4.95;;;13.10;99.90;;;;;;5052428;28;20522;-78
2021/03/03 08:51:38;;;;;;;9.13;3.65;;;13.10;99.90;;;;;;5034399;28;20178;-76
2021/03/03 08:54:06;;;;;;;3.92;3.55;;;13.10;99.90;;;;;;5050991;28;20175;-77
2021/03/03 08:56:39;;;;;;;16.42;3.53;;;13.20;99.90;;;;;;5051638;28;20215;-77
2021/03/03 08:59:24;;;;;;;9.57;3.08;;;13.30;99.90;;;;;;5051025;28;20269;-77
2021/03/03 09:02:02;;;;;;;12.90;3.10;;;13.50;99.90;;;;;;5050837;28;20181;-78
2021/03/03 09:04:33;;;;;;;4.07;3.22;;;13.60;99.90;;;;;;5050535;28;20221;-77
2021/03/03 09:06:59;;;;;;;8.95;3.67;;;13.60;99.90;;;;;;5050732;28;20354;-77
2021/03/03 09:09:25;;;;;;;9.77;4.70;;;13.60;99.90;;;;;;5050973;28;20741;-77
2021/03/03 09:12:19;;;;;;;7.40;3.47;;;13.60;99.90;;;;;;5050717;28;20210;-77
2021/03/03 09:14:47;;;;;;;2.97;2.78;;;13.60;99.90;;;;;;5047337;28;20211;-76
2021/03/03 09:17:15;;;;;;;6.45;3.70;;;13.60;99.90;;;;;;5053074;28;20206;-77
2021/03/03 09:19:41;;;;;;;4.07;3.00;;;13.70;99.90;;;;;;5054444;28;20208;-77
2021/03/03 09:22:24;;;;;;;4.85;3.35;;;13.80;99.90;;;;;;5053892;28;20171;-76
2021/03/03 09:24:53;;;;;;;3.63;3.33;;;13.80;99.90;;;;;;5053758;28;20178;-77
2021/03/03 09:27:20;;;;;;;5.93;4.18;;;14.00;99.90;;;;;;5054249;28;20232;-77
2021/03/03 09:29:47;;;;;;;28.45;5.55;;;14.00;99.90;;;;;;5053996;28;20673;-77
2021/03/03 09:32:21;;;;;;;15.10;5.97;;;14.20;99.90;;;;;;5053877;28;20175;-77
2021/03/03 09:34:48;;;;;;;2.08;1.98;;;14.10;99.90;;;;;;5053535;28;20524;-77
2021/03/03 09:37:15;;;;;;;18.25;2.70;;;14.10;99.90;;;;;;5054096;28;20557;-77
2021/03/03 09:39:41;;;;;;;6.35;3.97;;;14.00;99.90;;;;;;5054155;28;20175;-77
2021/03/03 09:42:09;;;;;;;4.47;3.30;;;14.10;99.90;;;;;;5053451;28;20167;-77
2021/03/03 09:44:52;;;;;;;9.60;3.90;;;14.20;99.90;;;;;;5053960;28;20166;-76
2021/03/03 09:47:25;;;;;;;5.40;4.72;;;14.20;99.90;;;;;;5053568;28;20183;-75
2021/03/03 09:49:51;;;;;;;11.55;4.07;;;14.30;99.90;;;;;;5053514;28;20773;-76
2021/03/03 09:52:17;;;;;;;4.47;3.95;;;14.50;99.90;;;;;;5053460;28;20224;-75
2021/03/03 09:54:43;;;;;;;5.50;3.92;;;14.60;99.90;;;;;;5053308;28;20262;-75
2021/03/03 09:57:12;;;;;;;29.67;4.28;;;14.50;99.90;;;;;;5033580;28;576910;-75
2021/03/03 09:59:41;;;;;;;5.90;3.78;;;14.60;99.90;;;;;;5054307;28;20537;-75
2021/03/03 10:02:07;;;;;;;11.32;3.25;;;14.50;99.90;;;;;;5055645;28;20221;-85
2021/03/03 10:04:40;;;;;;;4.05;2.60;;;14.50;99.90;;;;;;5037295;28;20619;-81
2021/03/03 10:07:26;;;;;;;3.08;2.83;;;14.40;99.90;;;;;;5037177;28;20195;-82
2021/03/03 10:10:00;;;;;;;6.43;3.00;;;14.40;99.90;;;;;;5055486;28;20183;-83
2021/03/03 10:12:33;;;;;;;12.80;3.33;;;14.40;99.90;;;;;;5040971;28;20175;-77
2021/03/03 10:15:00;;;;;;;3.72;2.88;;;14.60;99.90;;;;;;5054485;28;20522;-77
2021/03/03 10:17:50;;;;;;;8.95;4.13;;;14.60;99.90;;;;;;5053904;28;20211;-76
2021/03/03 10:20:32;;;;;;;4.10;2.85;;;14.60;99.90;;;;;;5054772;28;20195;-77
2021/03/03 10:23:04;;;;;;;18.23;5.03;;;14.60;99.90;;;;;;5054386;28;20680;-80
2021/03/03 10:25:34;;;;;;;19.40;3.40;;;14.60;99.90;;;;;;5054323;28;20190;-80
2021/03/03 10:28:09;;;;;;;3.40;2.40;;;14.80;99.90;;;;;;5054459;28;20191;-79
2021/03/03 10:30:41;;;;;;;2.88;2.67;;;14.90;99.90;;;;;;5059176;28;20193;-81
2021/03/03 10:33:08;;;;;;;3.67;2.75;;;14.80;99.90;;;;;;5058530;28;20167;-87
2021/03/03 10:35:45;;;;;;;3.35;3.05;;;14.90;99.90;;;;;;5039739;28;20178;-85
2021/03/03 10:38:15;;;;;;;7.50;3.35;;;15.10;99.90;;;;;;5055865;28;20343;-80
2021/03/03 10:40:44;;;;;;;7.60;3.38;;;15.20;99.90;;;;;;5054572;28;20518;-78
2021/03/03 10:43:21;;;;;;;6.15;3.58;;;15.20;99.90;;;;;;5054118;28;20163;-79
2021/03/03 10:46:06;;;;;;;9.30;3.45;;;15.40;99.90;;;;;;5053706;28;20174;-83
2021/03/03 10:48:32;;;;;;;5.30;4.78;;;15.40;99.90;;;;;;5020176;28;20524;-92
2021/03/03 10:51:01;;;;;;;2.28;2.08;;;15.40;99.90;;;;;;5058941;28;20229;-91
2021/03/03 10:53:45;;;;;;;10.80;4.18;;;15.30;99.90;;;;;;5058988;28;20701;-92
2021/03/03 10:56:30;;;;;;;8.35;3.88;;;15.40;99.90;;;;;;5060433;28;20207;-87
2021/03/03 10:58:58;;;;;;;13.32;3.22;;;15.40;99.90;;;;;;5040175;28;20189;-90
2021/03/03 11:01:38;;;;;;;14.80;3.45;;;15.40;99.90;;;;;;5038779;28;20175;-86
2021/03/03 11:04:04;;;;;;;12.70;3.78;;;15.20;99.90;;;;;;5043249;28;20202;-93
2021/03/03 11:06:33;;;;;;;3.15;2.85;;;15.30;99.90;;;;;;5041708;28;20187;-87
2021/03/03 11:08:59;;;;;;;4.18;1.83;;;15.50;99.90;;;;;;5064538;28;20162;-89
2021/03/03 11:11:26;;;;;;;6.85;2.17;;;15.40;99.90;;;;;;5042797;28;21421;-88
2021/03/03 11:13:53;;;;;;;11.70;3.25;;;15.50;99.90;;;;;;5073349;28;20179;-88
2021/03/03 11:16:22;;;;;;;7.72;3.33;;;15.40;99.90;;;;;;5065654;28;20202;-85
2021/03/03 11:18:48;;;;;;;5.53;3.38;;;15.40;99.90;;;;;;5051005;28;20175;-88
2021/03/03 11:21:14;;;;;;;6.18;3.63;;;15.50;99.90;;;;;;5075265;28;20181;-76
2021/03/03 11:23:39;;;;;;;8.75;3.13;;;15.50;99.90;;;;;;5073625;28;20155;-78
2021/03/03 11:26:05;;;;;;;3.05;2.85;;;15.60;99.90;;;;;;5073519;28;20603;-78
2021/03/03 11:28:31;;;;;;;4.47;3.38;;;15.70;99.90;;;;;;5073403;28;20167;-78
2021/03/03 11:30:56;;;;;;;5.72;3.40;;;15.80;99.90;;;;;;5073484;28;20254;-78
2021/03/03 11:33:22;;;;;;;8.07;3.78;;;16.00;99.90;;;;;;5073161;28;20261;-77
2021/03/03 11:35:48;;;;;;;6.22;2.97;;;15.90;99.90;;;;;;5073329;28;20784;-76
2021/03/03 11:38:14;;;;;;;9.00;2.45;;;16.00;99.90;;;;;;5073698;28;20182;-79
2021/03/03 11:40:40;;;;;;;21.98;4.35;;;16.00;99.90;;;;;;5073352;28;20154;-78
2021/03/03 11:43:06;;;;;;;3.60;3.30;;;16.00;99.90;;;;;;5073331;28;20528;-78
2021/03/03 11:45:31;;;;;;;2.40;1.60;;;16.20;99.90;;;;;;5073799;28;20174;-78
2021/03/03 11:47:57;;;;;;;4.30;2.90;;;16.20;99.90;;;;;;5075650;28;20186;-78
2021/03/03 11:50:23;;;;;;;1.50;1.38;;;16.10;99.90;;;;;;5086276;28;20155;-78
2021/03/03 11:52:49;;;;;;;2.85;2.45;;;16.00;99.90;;;;;;5069653;28;20175;-78
2021/03/03 11:55:15;;;;;;;2.22;2.05;;;15.90;99.90;;;;;;5087728;28;20191;-78
2021/03/03 11:57:41;;;;;;;15.77;2.63;;;16.00;99.90;;;;;;5087995;28;20246;-78
2021/03/03 12:00:12;;;;;;;1.92;1.83;;;16.00;99.90;;;;;;5088269;28;20166;-78
2021/03/03 12:02:39;;;;;;;3.65;2.05;;;15.90;99.90;;;;;;5087779;28;20173;-79
2021/03/03 12:05:06;;;;;;;6.32;3.28;;;16.00;99.90;;;;;;5087185;28;20162;-78
2021/03/03 12:07:33;;;;;;;3.33;2.85;;;16.00;99.90;;;;;;5087450;28;20196;-79
2021/03/03 12:09:59;;;;;;;4.22;3.22;;;16.00;99.90;;;;;;5087339;28;20175;-78
2021/03/03 12:12:24;;;;;;;3.50;2.22;;;15.90;99.90;;;;;;5086648;28;20165;-78
2021/03/03 12:14:50;;;;;;;3.50;2.72;;;16.00;99.90;;;;;;5087061;28;20193;-80
2021/03/03 12:17:16;;;;;;;3.55;3.22;;;16.10;99.90;;;;;;5087441;28;20252;-80
2021/03/03 12:19:41;;;;;;;2.75;2.47;;;16.30;99.90;;;;;;5086811;28;20220;-79
2021/03/03 12:22:07;;;;;;;3.25;2.63;;;16.30;99.90;;;;;;5088084;28;20166;-77
2021/03/03 12:24:33;;;;;;;4.18;1.30;;;16.50;99.90;;;;;;5084130;28;20510;-79
2021/03/03 12:26:58;;;;;;;8.27;2.65;;;16.50;99.90;;;;;;5073444;28;20190;-77
2021/03/03 12:29:24;;;;;;;2.22;1.75;;;16.50;99.90;;;;;;5073976;28;20246;-80
2021/03/03 12:31:50;;;;;;;7.78;2.40;;;16.20;99.90;;;;;;5073368;28;20174;-79
2021/03/03 12:34:15;;;;;;;6.93;2.72;;;16.20;99.90;;;;;;5073499;28;20258;-79
2021/03/03 12:36:41;;;;;;;14.57;4.18;;;16.40;99.90;;;;;;5073351;28;20730;-78
2021/03/03 12:39:08;;;;;;;14.75;3.60;;;16.50;99.90;;;;;;5072734;28;20162;-80
2021/03/03 12:41:33;;;;;;;2.25;1.73;;;16.50;99.90;;;;;;5073099;28;20198;-77
2021/03/03 12:43:59;;;;;;;7.97;2.92;;;16.50;99.90;;;;;;5073342;28;20174;-78
2021/03/03 12:46:24;;;;;;;1.92;1.77;;;16.50;99.90;;;;;;5073143;28;20191;-78
2021/03/03 12:48:51;;;;;;;4.50;2.60;;;16.60;99.90;;;;;;5072695;28;20174;-78
2021/03/03 12:51:17;;;;;;;3.53;2.50;;;16.80;99.90;;;;;;5073478;28;20208;-76
2021/03/03 12:53:44;;;;;;;3.85;2.90;;;16.80;99.90;;;;;;5076785;28;20509;-78
2021/03/03 12:56:10;;;;;;;2.67;2.47;;;16.80;99.90;;;;;;5076335;28;20665;-76
2021/03/03 12:58:36;;;;;;;1.63;1.52;;;16.80;99.90;;;;;;5076091;28;20324;-78
2021/03/03 13:01:01;;;;;;;1.52;1.42;;;16.80;99.90;;;;;;5076365;28;20250;-78